Time;durP1;ratioP1;P1;durP2;ratioP2;P2;SDS_P1;SDS_P2;PMS_P1;PMS_P2;Temp;Humidity;BMP_temperature;BMP_pressure;BME280_temperature;BME280_humidity;BME280_pressure;Samples;Min_cycle;Max_cycle;Signal;HPM_P1;HPM_P2
2022/03/28 00:01:23;;;;;;;6.28;4.03;;;5.70;26.50;;;;;;5084090;28;34231;-77
2022/03/28 00:03:50;;;;;;;6.30;3.75;;;5.70;26.60;;;;;;5102134;28;34206;-77
2022/03/28 00:06:16;;;;;;;5.13;3.95;;;5.70;26.60;;;;;;5104893;28;34295;-77
2022/03/28 00:08:42;;;;;;;6.22;4.00;;;5.70;27.00;;;;;;5083515;28;36232;-77
2022/03/28 00:11:08;;;;;;;6.18;3.40;;;5.70;27.00;;;;;;5086681;28;33852;-77
2022/03/28 00:13:35;;;;;;;6.22;3.92;;;5.60;27.20;;;;;;5083868;28;34222;-77
2022/03/28 00:16:02;;;;;;;4.85;3.30;;;5.60;27.20;;;;;;5084841;28;34442;-77
2022/03/28 00:18:29;;;;;;;4.53;3.13;;;5.60;27.20;;;;;;5065639;28;35875;-77
2022/03/28 00:20:55;;;;;;;4.10;3.65;;;5.50;27.30;;;;;;5066785;28;34282;-77
2022/03/28 00:23:22;;;;;;;5.80;3.97;;;5.50;27.30;;;;;;5082760;28;34148;-77
2022/03/28 00:25:49;;;;;;;4.88;3.35;;;5.50;27.30;;;;;;5083777;28;34337;-77
2022/03/28 00:28:15;;;;;;;5.25;3.83;;;5.40;27.20;;;;;;5101313;28;35996;-77
2022/03/28 00:30:42;;;;;;;4.78;3.42;;;5.40;27.20;;;;;;5103528;28;34248;-77
2022/03/28 00:33:08;;;;;;;6.95;4.22;;;5.30;27.40;;;;;;5106872;27;34170;-77
2022/03/28 00:35:35;;;;;;;6.88;4.07;;;5.30;27.70;;;;;;5106756;27;34334;-77
2022/03/28 00:38:04;;;;;;;5.90;4.40;;;5.20;27.60;;;;;;5124897;27;35451;-77
2022/03/28 00:40:32;;;;;;;8.50;4.13;;;5.20;27.90;;;;;;5106644;27;34251;-77
2022/03/28 00:43:01;;;;;;;7.78;4.60;;;5.20;27.70;;;;;;5124674;27;34412;-77
2022/03/28 00:45:27;;;;;;;12.50;4.55;;;5.10;27.90;;;;;;5106947;27;34305;-77
2022/03/28 00:47:53;;;;;;;5.28;4.00;;;5.10;27.70;;;;;;5088973;27;35760;-77
2022/03/28 00:50:20;;;;;;;5.88;3.97;;;5.10;27.70;;;;;;5106130;27;34371;-77
2022/03/28 00:52:46;;;;;;;5.47;3.65;;;5.00;27.50;;;;;;5106679;27;34198;-77
2022/03/28 00:55:12;;;;;;;7.07;4.00;;;5.00;27.60;;;;;;5072929;27;34035;-77
2022/03/28 00:57:38;;;;;;;5.32;3.80;;;5.00;27.70;;;;;;5107207;27;34870;-77
2022/03/28 01:00:07;;;;;;;7.93;4.93;;;4.90;27.80;;;;;;5106267;27;34380;-77
2022/03/28 01:02:33;;;;;;;7.45;3.78;;;4.90;27.90;;;;;;5089250;27;34186;-77
2022/03/28 01:04:59;;;;;;;6.88;4.20;;;4.90;28.10;;;;;;5106044;27;34211;-77
2022/03/28 01:07:26;;;;;;;7.15;3.83;;;4.80;27.90;;;;;;5124324;27;34262;-77
2022/03/28 01:09:55;;;;;;;6.82;4.07;;;4.80;27.80;;;;;;5106049;27;34322;-77
2022/03/28 01:12:24;;;;;;;6.38;4.32;;;4.80;27.80;;;;;;5106070;27;34585;-77
2022/03/28 01:14:51;;;;;;;5.82;4.20;;;4.80;28.00;;;;;;5089395;27;34237;-78
2022/03/28 01:19:58;;;;;;;6.60;4.88;;;4.70;28.20;;;;;;5123629;27;34387;-77
2022/03/28 01:22:24;;;;;;;5.68;4.15;;;4.60;28.10;;;;;;5106116;27;34090;-77
2022/03/28 01:24:51;;;;;;;5.90;4.47;;;4.60;28.20;;;;;;5088843;27;34374;-77
2022/03/28 01:27:19;;;;;;;6.07;4.13;;;4.60;28.20;;;;;;5089215;27;36039;-77
2022/03/28 01:29:45;;;;;;;5.22;4.35;;;4.60;28.10;;;;;;5072222;27;34250;-77
2022/03/28 01:32:11;;;;;;;7.05;4.35;;;4.50;28.10;;;;;;5091047;27;34270;-77
2022/03/28 01:34:38;;;;;;;9.45;4.63;;;4.50;28.30;;;;;;5109713;27;34308;-77
2022/03/28 01:37:04;;;;;;;6.40;4.43;;;4.50;28.20;;;;;;5127359;27;34491;-77
2022/03/28 01:39:31;;;;;;;6.82;3.92;;;4.50;28.40;;;;;;5092685;27;33881;-77
2022/03/28 01:41:58;;;;;;;6.07;4.45;;;4.50;28.60;;;;;;5128411;27;34315;-77
2022/03/28 01:44:25;;;;;;;5.75;4.47;;;4.40;28.30;;;;;;5092163;27;34626;-77
2022/03/28 01:46:51;;;;;;;8.07;4.38;;;4.40;29.20;;;;;;5126805;27;35157;-77
2022/03/28 01:49:19;;;;;;;6.80;4.63;;;4.40;28.50;;;;;;5127900;27;34394;-77
2022/03/28 01:51:46;;;;;;;8.65;5.20;;;4.30;28.80;;;;;;5092707;27;34413;-77
2022/03/28 01:54:12;;;;;;;7.55;4.22;;;4.30;28.90;;;;;;5092217;27;34171;-77
2022/03/28 01:56:39;;;;;;;6.10;4.32;;;4.20;29.00;;;;;;5108967;27;35891;-77
2022/03/28 01:59:06;;;;;;;6.53;4.13;;;4.20;29.20;;;;;;5108920;27;34102;-77
2022/03/28 02:01:33;;;;;;;6.70;5.07;;;4.10;29.10;;;;;;5109486;27;34210;-77
2022/03/28 02:03:59;;;;;;;7.70;5.07;;;4.10;29.10;;;;;;5108242;27;34423;-77
2022/03/28 02:06:26;;;;;;;7.22;5.30;;;4.10;29.00;;;;;;5126701;27;34204;-77
2022/03/28 02:08:52;;;;;;;6.90;4.90;;;4.10;29.20;;;;;;5091738;27;34284;-77
2022/03/28 02:11:19;;;;;;;9.18;5.15;;;4.00;29.20;;;;;;5109110;27;34299;-77
2022/03/28 02:13:45;;;;;;;6.25;4.60;;;4.00;29.10;;;;;;5091695;27;34278;-77
2022/03/28 02:16:11;;;;;;;6.20;4.90;;;4.00;28.90;;;;;;5091511;27;36960;-77
2022/03/28 02:18:38;;;;;;;6.45;4.63;;;3.90;28.90;;;;;;5109510;27;34121;-77
2022/03/28 02:21:05;;;;;;;6.70;4.88;;;3.90;29.00;;;;;;5108256;27;34158;-77
2022/03/28 02:23:32;;;;;;;7.82;4.65;;;3.90;29.10;;;;;;5108738;27;34162;-77
2022/03/28 02:25:58;;;;;;;6.13;4.32;;;3.90;29.10;;;;;;5126797;27;35234;-77
2022/03/28 02:28:25;;;;;;;6.70;4.50;;;3.90;29.40;;;;;;5108395;27;34315;-77
2022/03/28 02:30:51;;;;;;;8.98;5.15;;;3.80;29.10;;;;;;5108569;27;34394;-77
2022/03/28 02:33:17;;;;;;;6.57;4.00;;;3.80;29.20;;;;;;5108692;27;34596;-77
2022/03/28 02:35:43;;;;;;;7.43;5.03;;;3.80;29.40;;;;;;5108822;27;35628;-77
2022/03/28 02:38:09;;;;;;;9.05;5.00;;;3.80;29.60;;;;;;5108640;27;34179;-77
2022/03/28 02:40:36;;;;;;;6.80;4.53;;;3.70;29.40;;;;;;5126703;27;34067;-77
2022/03/28 02:43:03;;;;;;;8.88;4.72;;;3.70;29.50;;;;;;5126407;27;34292;-77
2022/03/28 02:45:31;;;;;;;6.00;4.40;;;3.70;29.80;;;;;;5108605;27;36457;-77
2022/03/28 02:47:59;;;;;;;6.82;4.35;;;3.70;29.80;;;;;;5127068;27;34155;-78
2022/03/28 02:50:26;;;;;;;6.50;4.57;;;3.70;29.60;;;;;;5091607;27;34146;-77
2022/03/28 02:52:52;;;;;;;7.82;4.97;;;3.60;29.50;;;;;;5108786;27;34431;-77
2022/03/28 02:55:18;;;;;;;7.47;4.70;;;3.60;29.50;;;;;;5108040;27;36320;-77
2022/03/28 02:57:44;;;;;;;7.20;4.97;;;3.60;29.30;;;;;;5090948;27;34511;-77
2022/03/28 03:00:10;;;;;;;8.93;5.47;;;3.60;29.60;;;;;;5126314;27;34309;-77
2022/03/28 03:02:38;;;;;;;7.10;4.95;;;3.50;29.70;;;;;;5091118;27;34391;-77
2022/03/28 03:05:06;;;;;;;8.30;5.07;;;3.50;29.60;;;;;;5090931;27;35679;-77
2022/03/28 03:07:33;;;;;;;6.10;4.60;;;3.50;29.60;;;;;;5091717;27;34296;-77
2022/03/28 03:09:59;;;;;;;7.10;5.03;;;3.50;29.70;;;;;;5127040;27;34311;-77
2022/03/28 03:12:25;;;;;;;7.70;5.18;;;3.40;29.70;;;;;;5091156;27;34103;-77
2022/03/28 03:14:51;;;;;;;8.70;5.20;;;3.40;29.70;;;;;;5107492;27;35566;-77
2022/03/28 03:17:18;;;;;;;10.88;5.07;;;3.40;29.50;;;;;;5108012;27;34191;-77
2022/03/28 03:19:44;;;;;;;8.90;5.28;;;3.40;29.50;;;;;;5107790;27;34285;-77
2022/03/28 03:22:14;;;;;;;9.60;5.07;;;3.30;29.60;;;;;;5108179;27;34162;-77
2022/03/28 03:24:40;;;;;;;10.15;5.22;;;3.30;30.00;;;;;;5107486;27;35657;-77
2022/03/28 03:27:07;;;;;;;7.05;4.93;;;3.20;29.90;;;;;;5107303;27;34182;-77
2022/03/28 03:29:34;;;;;;;7.28;4.85;;;3.20;29.80;;;;;;5091135;27;34392;-77
2022/03/28 03:31:59;;;;;;;9.52;5.35;;;3.20;29.80;;;;;;5090835;27;34346;-77
2022/03/28 03:34:26;;;;;;;8.85;5.10;;;3.20;30.30;;;;;;5090481;27;36021;-77
2022/03/28 03:36:52;;;;;;;11.40;5.43;;;3.10;30.00;;;;;;5107169;27;34047;-78
2022/03/28 03:39:18;;;;;;;8.95;5.60;;;3.10;29.80;;;;;;5090782;27;34106;-77
2022/03/28 03:41:44;;;;;;;8.05;5.30;;;3.10;30.00;;;;;;5106847;27;34404;-77
2022/03/28 03:44:11;;;;;;;8.70;5.25;;;3.10;30.20;;;;;;5090265;27;36039;-77
2022/03/28 03:46:37;;;;;;;7.45;4.78;;;3.00;30.40;;;;;;5090647;27;34174;-77
2022/03/28 03:49:03;;;;;;;7.72;5.32;;;3.00;30.20;;;;;;5090649;27;34288;-77
2022/03/28 03:51:28;;;;;;;8.30;5.45;;;3.00;30.10;;;;;;5126149;27;34424;-77
2022/03/28 03:53:54;;;;;;;5.97;4.43;;;3.00;30.30;;;;;;5124668;27;34490;-77
2022/03/28 03:56:20;;;;;;;9.35;5.82;;;3.00;30.20;;;;;;5107306;27;34335;-77
2022/03/28 03:58:47;;;;;;;9.10;5.22;;;2.90;30.40;;;;;;5107330;27;34290;-77
2022/03/28 04:01:13;;;;;;;8.93;5.35;;;2.90;30.50;;;;;;5090763;27;33993;-77
2022/03/28 04:03:39;;;;;;;6.70;4.72;;;2.80;30.60;;;;;;5107149;27;36380;-77
2022/03/28 04:06:05;;;;;;;7.53;4.55;;;2.80;30.60;;;;;;5107103;27;34276;-77
2022/03/28 04:08:31;;;;;;;14.63;5.35;;;2.80;30.40;;;;;;5107301;27;34173;-77
2022/03/28 04:10:58;;;;;;;8.85;4.93;;;2.80;30.40;;;;;;5107124;27;34279;-77
2022/03/28 04:13:24;;;;;;;8.23;4.75;;;2.80;30.60;;;;;;5089582;27;36689;-77
2022/03/28 04:15:50;;;;;;;14.40;5.78;;;2.80;30.50;;;;;;5106982;27;34300;-77
2022/03/28 04:18:16;;;;;;;8.10;5.43;;;2.80;30.50;;;;;;5090218;27;34230;-77
2022/03/28 04:20:42;;;;;;;8.30;5.65;;;2.70;30.30;;;;;;5107203;27;34140;-77
2022/03/28 04:23:08;;;;;;;8.27;5.72;;;2.70;30.20;;;;;;5090179;27;36540;-78
2022/03/28 04:25:34;;;;;;;14.82;5.85;;;2.70;30.00;;;;;;5090022;27;34162;-77
2022/03/28 04:28:00;;;;;;;7.90;5.43;;;2.60;30.20;;;;;;5106589;27;34430;-77
2022/03/28 04:30:26;;;;;;;8.13;5.18;;;2.70;30.60;;;;;;5107092;27;34099;-78
2022/03/28 04:32:52;;;;;;;6.65;4.65;;;2.60;30.60;;;;;;5106354;27;35273;-77
2022/03/28 04:35:19;;;;;;;10.27;5.22;;;2.60;30.40;;;;;;5125058;27;34213;-78
2022/03/28 04:37:45;;;;;;;8.73;4.95;;;2.60;30.60;;;;;;5125321;27;34363;-77
2022/03/28 04:40:14;;;;;;;8.90;5.63;;;2.60;31.20;;;;;;5089473;27;34671;-77
2022/03/28 04:42:40;;;;;;;10.40;5.85;;;2.60;30.80;;;;;;5073254;27;36087;-77
2022/03/28 04:45:07;;;;;;;9.25;5.63;;;2.60;30.80;;;;;;5106402;27;34210;-77
2022/03/28 04:47:34;;;;;;;9.48;5.90;;;2.60;30.80;;;;;;5090100;27;34208;-78
2022/03/28 04:50:00;;;;;;;9.00;5.93;;;2.50;30.90;;;;;;5105967;27;34092;-78
2022/03/28 04:52:26;;;;;;;10.07;5.85;;;2.50;31.10;;;;;;5106130;27;36376;-77
2022/03/28 04:54:52;;;;;;;9.07;5.00;;;2.50;31.10;;;;;;5106440;27;34260;-77
2022/03/28 04:57:18;;;;;;;8.38;5.28;;;2.40;30.90;;;;;;5107420;27;34351;-78
2022/03/28 04:59:44;;;;;;;9.85;4.63;;;2.40;30.80;;;;;;5124620;27;34310;-77
2022/03/28 05:02:10;;;;;;;12.02;5.43;;;2.40;30.90;;;;;;5106409;27;34209;-78
2022/03/28 05:04:36;;;;;;;8.77;5.50;;;2.40;30.90;;;;;;5089474;27;34282;-77
2022/03/28 05:07:02;;;;;;;10.85;5.82;;;2.40;30.90;;;;;;5123523;27;34130;-77
2022/03/28 05:09:47;;;;;;;9.85;5.97;;;2.40;31.00;;;;;;5072915;27;34518;-77
2022/03/28 05:12:12;;;;;;;6.93;4.95;;;2.30;31.00;;;;;;5106090;27;36715;-77
2022/03/28 05:14:38;;;;;;;9.32;5.97;;;2.30;30.90;;;;;;5107165;27;34203;-77
2022/03/28 05:17:05;;;;;;;8.63;5.63;;;2.30;30.90;;;;;;5106653;27;34434;-78
2022/03/28 05:19:31;;;;;;;10.60;5.82;;;2.30;31.10;;;;;;5089102;27;34334;-77
2022/03/28 05:21:58;;;;;;;7.85;5.88;;;2.30;31.20;;;;;;5105736;27;35548;-77
2022/03/28 05:24:24;;;;;;;9.70;6.18;;;2.30;31.10;;;;;;5106791;27;34295;-78
2022/03/28 05:26:50;;;;;;;8.10;5.43;;;2.30;31.10;;;;;;5105873;27;34251;-78
2022/03/28 05:29:16;;;;;;;10.15;5.93;;;2.30;31.20;;;;;;5125223;27;34114;-77
2022/03/28 05:31:42;;;;;;;11.30;6.45;;;2.30;31.10;;;;;;5124892;27;34158;-77
2022/03/28 05:34:08;;;;;;;11.38;6.20;;;2.30;31.10;;;;;;5106849;27;33720;-77
2022/03/28 05:36:34;;;;;;;9.82;6.20;;;2.30;31.10;;;;;;5105952;27;34173;-78
2022/03/28 05:39:00;;;;;;;9.50;5.80;;;2.30;30.90;;;;;;5106152;27;34249;-78
2022/03/28 05:41:25;;;;;;;8.48;5.47;;;2.30;30.90;;;;;;5071694;27;36040;-78
2022/03/28 05:43:51;;;;;;;11.55;6.90;;;2.30;31.10;;;;;;5089463;27;34139;-78
2022/03/28 05:46:18;;;;;;;11.75;6.57;;;2.30;31.00;;;;;;5107352;27;34186;-78
2022/03/28 05:48:44;;;;;;;10.45;6.25;;;2.30;31.20;;;;;;5090279;27;34198;-78
2022/03/28 05:51:10;;;;;;;9.20;6.20;;;2.40;31.20;;;;;;5105580;27;35589;-78
2022/03/28 05:53:36;;;;;;;10.95;6.43;;;2.40;31.10;;;;;;5105865;27;34260;-78
2022/03/28 05:56:03;;;;;;;7.30;5.63;;;2.50;31.20;;;;;;5088357;27;34421;-77
2022/03/28 05:58:30;;;;;;;11.80;6.50;;;2.50;31.20;;;;;;5089890;27;34170;-77
2022/03/28 06:00:58;;;;;;;14.57;7.07;;;2.60;31.30;;;;;;5088119;27;35560;-77
2022/03/28 06:03:24;;;;;;;10.68;6.78;;;2.70;31.10;;;;;;5123389;27;34924;-78
2022/03/28 06:05:50;;;;;;;13.70;7.07;;;2.80;31.10;;;;;;5088480;27;34162;-77
2022/03/28 06:08:16;;;;;;;9.70;6.90;;;3.00;31.20;;;;;;5119831;27;34327;-77
2022/03/28 06:10:42;;;;;;;11.60;6.97;;;3.20;31.00;;;;;;5102359;28;36267;-77
2022/03/28 06:13:08;;;;;;;12.05;7.30;;;3.50;30.40;;;;;;5104873;27;34233;-77
2022/03/28 06:15:36;;;;;;;10.77;6.75;;;3.80;30.10;;;;;;5106128;27;34301;-77
2022/03/28 06:18:04;;;;;;;13.00;7.40;;;3.90;29.70;;;;;;5090381;27;34115;-78
2022/03/28 06:20:31;;;;;;;12.73;7.53;;;4.10;29.60;;;;;;5091526;27;36175;-77
2022/03/28 06:22:56;;;;;;;12.90;7.53;;;4.30;29.30;;;;;;5126789;27;34154;-77
2022/03/28 06:25:22;;;;;;;16.58;7.32;;;4.50;29.00;;;;;;5074455;27;34281;-77
2022/03/28 06:27:49;;;;;;;12.77;8.30;;;4.60;28.90;;;;;;5108553;27;34321;-78
2022/03/28 06:30:15;;;;;;;14.38;8.55;;;5.00;28.60;;;;;;5110608;27;36278;-77
2022/03/28 06:32:41;;;;;;;12.32;8.13;;;5.30;28.10;;;;;;5111766;27;34157;-77
2022/03/28 06:35:08;;;;;;;18.70;8.70;;;5.70;27.40;;;;;;5110477;27;34352;-77
2022/03/28 06:37:35;;;;;;;11.70;7.47;;;6.10;27.00;;;;;;5111078;27;34204;-77
2022/03/28 06:40:03;;;;;;;12.77;7.47;;;6.40;26.70;;;;;;5128703;27;34914;-77
2022/03/28 06:42:32;;;;;;;13.82;8.45;;;6.70;26.30;;;;;;5128828;27;34102;-77
2022/03/28 06:44:59;;;;;;;11.43;7.53;;;7.10;25.70;;;;;;5110249;27;34139;-77
2022/03/28 06:47:26;;;;;;;12.27;6.95;;;7.40;24.90;;;;;;5093068;27;34510;-77
2022/03/28 06:49:52;;;;;;;10.68;7.55;;;7.60;24.50;;;;;;5127420;27;34343;-76
2022/03/28 06:52:18;;;;;;;15.48;7.45;;;7.90;24.30;;;;;;5092485;27;34254;-77
2022/03/28 06:54:43;;;;;;;10.60;7.20;;;8.10;24.10;;;;;;5110324;27;34192;-77
2022/03/28 06:57:10;;;;;;;10.60;7.35;;;8.40;24.10;;;;;;5109969;27;34072;-77
2022/03/28 06:59:36;;;;;;;11.98;7.90;;;8.60;23.90;;;;;;5092082;27;35671;-77
2022/03/28 07:02:02;;;;;;;11.43;7.25;;;8.80;23.90;;;;;;5108065;27;34564;-77
2022/03/28 07:04:28;;;;;;;12.25;7.28;;;9.10;23.90;;;;;;5108719;27;34282;-77
2022/03/28 07:06:54;;;;;;;11.05;6.45;;;9.30;23.70;;;;;;5092626;27;34051;-77
2022/03/28 07:09:20;;;;;;;8.93;5.72;;;9.40;23.60;;;;;;5127634;27;35420;-77
2022/03/28 07:11:51;;;;;;;8.18;5.68;;;9.60;23.70;;;;;;5127757;27;34071;-77
2022/03/28 07:14:18;;;;;;;9.32;6.20;;;9.80;23.60;;;;;;5110396;27;34108;-78
2022/03/28 07:16:44;;;;;;;10.15;6.47;;;9.90;23.40;;;;;;5110340;27;34082;-78
2022/03/28 07:19:10;;;;;;;12.05;6.18;;;9.90;23.50;;;;;;5110351;27;35186;-77
2022/03/28 07:21:36;;;;;;;11.40;6.43;;;10.00;23.60;;;;;;5092173;27;34654;-77
2022/03/28 07:24:02;;;;;;;8.80;6.50;;;9.90;23.70;;;;;;5091846;27;34317;-77
2022/03/28 07:26:28;;;;;;;12.52;7.53;;;9.80;23.80;;;;;;5091649;27;34419;-77
2022/03/28 07:28:58;;;;;;;12.65;7.28;;;9.80;24.10;;;;;;5089154;27;35581;-77
2022/03/28 07:31:24;;;;;;;12.45;7.75;;;9.80;24.20;;;;;;5109137;27;34052;-77
2022/03/28 07:33:49;;;;;;;11.27;7.63;;;9.90;24.40;;;;;;5108859;27;34168;-77
2022/03/28 07:36:15;;;;;;;12.20;7.47;;;9.90;24.60;;;;;;5075642;27;34251;-77
2022/03/28 07:38:41;;;;;;;10.82;7.10;;;9.90;24.50;;;;;;5109255;27;35151;-77
2022/03/28 07:41:08;;;;;;;12.85;8.07;;;9.90;24.80;;;;;;5108922;27;34163;-77
2022/03/28 07:43:34;;;;;;;11.27;8.05;;;10.00;24.80;;;;;;5108656;27;34331;-77
2022/03/28 07:46:00;;;;;;;12.82;7.70;;;10.00;25.10;;;;;;5109490;27;34066;-77
2022/03/28 07:48:27;;;;;;;11.48;7.95;;;10.20;25.20;;;;;;5108776;27;35683;-77
2022/03/28 07:50:53;;;;;;;13.68;7.95;;;10.30;25.40;;;;;;5108793;27;34280;-78
2022/03/28 07:53:19;;;;;;;11.13;7.63;;;10.60;25.50;;;;;;5110043;27;34229;-77
2022/03/28 07:55:45;;;;;;;10.52;7.25;;;10.80;25.40;;;;;;5076059;27;34086;-77
2022/03/28 07:58:12;;;;;;;10.45;7.53;;;11.00;25.20;;;;;;5092314;27;35646;-77
2022/03/28 08:00:40;;;;;;;16.20;8.77;;;11.20;25.10;;;;;;5109572;27;34261;-77
2022/03/28 08:03:06;;;;;;;14.32;7.95;;;11.40;24.90;;;;;;5127551;27;34472;-78
2022/03/28 08:05:32;;;;;;;11.52;7.85;;;11.60;24.90;;;;;;5108400;27;34491;-77
2022/03/28 08:07:58;;;;;;;12.77;8.65;;;11.70;24.90;;;;;;5108204;27;34553;-78
2022/03/28 08:10:25;;;;;;;12.13;7.20;;;11.90;24.80;;;;;;5108184;27;34328;-78
2022/03/28 08:12:51;;;;;;;11.88;7.70;;;12.10;24.70;;;;;;5108427;27;34381;-78
2022/03/28 08:15:19;;;;;;;12.90;8.88;;;12.20;24.50;;;;;;5091605;27;34446;-78
2022/03/28 08:17:45;;;;;;;12.27;8.68;;;12.30;24.70;;;;;;5091671;27;36277;-78
2022/03/28 08:20:12;;;;;;;9.82;7.57;;;12.50;24.60;;;;;;5127195;27;34116;-79
2022/03/28 08:22:45;;;;;;;12.60;8.27;;;12.70;24.60;;;;;;5092559;27;34081;-78
2022/03/28 08:25:10;;;;;;;13.82;8.93;;;13.00;24.70;;;;;;5109462;27;34174;-78
2022/03/28 08:27:36;;;;;;;14.25;8.52;;;13.00;24.10;;;;;;5097127;28;35466;-79
2022/03/28 08:30:04;;;;;;;17.30;9.00;;;13.10;24.10;;;;;;5087865;28;34020;-77
2022/03/28 08:32:30;;;;;;;11.75;8.95;;;13.20;24.00;;;;;;5086014;28;34473;-78
2022/03/28 08:34:56;;;;;;;13.40;9.18;;;13.30;23.90;;;;;;5086765;28;34203;-78
2022/03/28 08:37:24;;;;;;;13.65;8.82;;;13.40;23.80;;;;;;5068981;28;35519;-78
2022/03/28 08:39:54;;;;;;;16.63;9.57;;;13.60;23.70;;;;;;5068847;28;34243;-78
2022/03/28 08:42:22;;;;;;;13.02;9.20;;;13.80;23.60;;;;;;5086084;28;34428;-78
2022/03/28 08:44:48;;;;;;;11.70;8.18;;;13.90;23.50;;;;;;5086479;28;34210;-78
2022/03/28 08:47:18;;;;;;;13.35;8.15;;;14.10;23.50;;;;;;5086180;28;35896;-78
2022/03/28 08:49:47;;;;;;;13.40;8.50;;;14.40;23.40;;;;;;5086821;28;33642;-78
2022/03/28 08:52:14;;;;;;;14.43;8.82;;;14.70;23.20;;;;;;5069580;28;34146;-78
2022/03/28 08:54:39;;;;;;;13.60;8.50;;;14.90;23.00;;;;;;5103884;28;34029;-78
2022/03/28 08:57:05;;;;;;;12.48;8.10;;;15.20;22.60;;;;;;5107864;28;34196;-78
2022/03/28 08:59:31;;;;;;;15.43;8.82;;;15.50;22.50;;;;;;5069791;28;34309;-78
2022/03/28 09:01:57;;;;;;;12.57;8.80;;;15.80;22.20;;;;;;5087996;28;34270;-78
2022/03/28 09:04:24;;;;;;;16.35;9.43;;;16.20;22.00;;;;;;5086826;28;34123;-78
2022/03/28 09:06:50;;;;;;;16.73;9.68;;;16.40;21.60;;;;;;5104367;27;35233;-78
2022/03/28 09:09:26;;;;;;;16.85;9.98;;;16.60;21.00;;;;;;5069181;28;34203;-77
2022/03/28 09:11:55;;;;;;;13.27;9.30;;;16.70;20.50;;;;;;5086413;28;34179;-78
2022/03/28 09:14:37;;;;;;;13.40;9.15;;;16.90;20.80;;;;;;5087764;28;34009;-78
2022/03/28 09:17:13;;;;;;;14.50;9.18;;;17.30;19.80;;;;;;5104581;28;35155;-75
2022/03/28 09:19:59;;;;;;;13.77;9.25;;;17.50;19.80;;;;;;5050196;28;34352;-76
2022/03/28 09:22:30;;;;;;;14.05;9.45;;;17.70;19.00;;;;;;5067293;28;34073;-75
2022/03/28 09:24:59;;;;;;;15.23;9.70;;;17.90;19.70;;;;;;5103047;27;34122;-75
2022/03/28 09:27:29;;;;;;;15.57;9.60;;;18.00;19.80;;;;;;5105092;27;34392;-75
2022/03/28 09:30:08;;;;;;;14.30;9.90;;;18.30;19.70;;;;;;5105664;28;34133;-75
2022/03/28 09:32:37;;;;;;;12.02;8.38;;;18.50;19.70;;;;;;5083381;28;34325;-75
2022/03/28 09:35:08;;;;;;;16.85;9.82;;;18.90;19.50;;;;;;5085710;28;34188;-75
2022/03/28 09:37:53;;;;;;;17.75;9.40;;;19.10;18.90;;;;;;5066506;28;36623;-75
2022/03/28 09:40:38;;;;;;;17.55;9.32;;;19.50;19.20;;;;;;5083495;28;34388;-75
2022/03/28 09:43:16;;;;;;;15.13;9.60;;;19.70;17.40;;;;;;5068319;28;34452;-75
2022/03/28 09:45:45;;;;;;;15.32;9.82;;;19.80;17.80;;;;;;5105030;28;34462;-75
2022/03/28 09:48:14;;;;;;;14.63;9.65;;;19.80;18.30;;;;;;5104262;28;35828;-75
2022/03/28 09:50:44;;;;;;;16.10;9.43;;;20.00;18.20;;;;;;5099706;28;34391;-75
2022/03/28 09:53:15;;;;;;;13.88;9.50;;;20.20;18.00;;;;;;5107777;27;34133;-75
2022/03/28 09:55:52;;;;;;;13.77;9.32;;;20.50;17.90;;;;;;5086282;28;34019;-75
2022/03/28 09:58:49;;;;;;;12.73;8.93;;;20.70;17.30;;;;;;5106443;28;35581;-75
2022/03/28 10:01:32;;;;;;;12.82;9.43;;;20.80;15.40;;;;;;5108954;27;34113;-75
2022/03/28 10:04:05;;;;;;;14.00;9.20;;;21.00;15.70;;;;;;5104023;28;34260;-75
2022/03/28 10:06:32;;;;;;;14.90;9.68;;;21.00;16.50;;;;;;5100933;28;34060;-75
2022/03/28 10:08:58;;;;;;;16.42;9.68;;;20.90;16.80;;;;;;5107285;28;35994;-75
2022/03/28 10:11:27;;;;;;;14.75;9.70;;;21.00;16.70;;;;;;5101521;28;34122;-75
2022/03/28 10:13:53;;;;;;;14.00;9.60;;;21.10;16.30;;;;;;5106285;28;34205;-75
2022/03/28 10:16:20;;;;;;;15.02;9.38;;;21.30;16.30;;;;;;5083325;28;34114;-75
2022/03/28 10:18:47;;;;;;;13.23;9.13;;;21.40;16.10;;;;;;5108442;28;35941;-75
2022/03/28 10:21:30;;;;;;;15.43;9.40;;;21.60;15.90;;;;;;5074017;28;34076;-75
2022/03/28 10:24:13;;;;;;;15.98;9.25;;;21.80;15.40;;;;;;5107447;28;34063;-75
2022/03/28 10:26:45;;;;;;;13.70;9.60;;;22.00;14.20;;;;;;5106318;27;34117;-75
2022/03/28 10:29:14;;;;;;;17.38;9.60;;;22.10;15.00;;;;;;5130290;27;35973;-75
2022/03/28 10:31:59;;;;;;;14.80;9.65;;;22.20;15.10;;;;;;5113406;27;34310;-75
2022/03/28 10:34:41;;;;;;;18.17;10.07;;;22.40;13.10;;;;;;5130115;27;34443;-75
2022/03/28 10:37:47;;;;;;;21.67;9.50;;;22.40;12.70;;;;;;5147447;27;34178;-75
2022/03/28 10:40:28;;;;;;;15.77;9.95;;;22.40;12.60;;;;;;5116325;27;36348;-75
2022/03/28 10:43:11;;;;;;;17.92;9.77;;;22.60;12.50;;;;;;5148324;27;34098;-75
2022/03/28 10:45:56;;;;;;;14.18;8.85;;;22.80;11.90;;;;;;5112710;27;34056;-75
2022/03/28 10:48:52;;;;;;;17.45;10.10;;;22.90;12.00;;;;;;5130121;27;33979;-75
2022/03/28 10:51:24;;;;;;;16.25;8.68;;;22.90;11.80;;;;;;5129844;27;35872;-76
2022/03/28 10:53:56;;;;;;;14.55;9.43;;;23.00;13.60;;;;;;5148844;27;34261;-76
2022/03/28 10:56:30;;;;;;;16.25;9.45;;;23.30;12.50;;;;;;5148360;27;34227;-75
2022/03/28 10:58:58;;;;;;;12.57;8.50;;;23.40;11.20;;;;;;5148684;27;34257;-75
2022/03/28 11:01:27;;;;;;;13.60;8.27;;;23.60;12.70;;;;;;5147846;27;34149;-75
2022/03/28 11:04:19;;;;;;;15.77;8.68;;;23.70;11.80;;;;;;5128995;27;34140;-76
2022/03/28 11:07:07;;;;;;;14.65;7.60;;;23.90;7.40;;;;;;5112896;27;34393;-76
2022/03/28 11:10:13;;;;;;;14.68;7.88;;;24.00;9.90;;;;;;5113305;27;34031;-76
2022/03/28 11:12:41;;;;;;;15.02;8.02;;;24.30;4.30;;;;;;5118170;27;35687;-75
2022/03/28 11:15:18;;;;;;;13.35;7.75;;;24.40;10.50;;;;;;5129412;27;34299;-75
2022/03/28 11:17:55;;;;;;;13.93;7.00;;;24.50;6.80;;;;;;5113218;27;34605;-75
2022/03/28 11:20:23;;;;;;;11.77;7.30;;;24.60;6.50;;;;;;5113952;27;34589;-75
2022/03/28 11:22:56;;;;;;;23.33;8.23;;;24.70;10.20;;;;;;5130182;27;36080;-75
2022/03/28 11:25:46;;;;;;;13.25;6.68;;;24.70;7.60;;;;;;5148164;27;34112;-75
2022/03/28 11:28:16;;;;;;;14.75;7.30;;;24.60;6.60;;;;;;5127173;27;34066;-75
2022/03/28 11:30:51;;;;;;;12.18;6.75;;;24.60;9.20;;;;;;5127733;27;33983;-75
2022/03/28 11:33:21;;;;;;;14.18;6.72;;;24.70;6.70;;;;;;5126965;27;34131;-75
2022/03/28 11:35:57;;;;;;;17.10;6.63;;;24.60;8.60;;;;;;5126936;27;34212;-76
2022/03/28 11:38:27;;;;;;;11.52;6.20;;;24.60;4.50;;;;;;5126414;27;34208;-76
2022/03/28 11:40:54;;;;;;;13.75;6.32;;;24.60;8.40;;;;;;5125685;27;34447;-75
2022/03/28 11:43:37;;;;;;;12.15;6.38;;;24.60;8.00;;;;;;5111907;27;36539;-75
2022/03/28 11:46:12;;;;;;;15.40;6.40;;;24.60;2.30;;;;;;5128834;27;34458;-75
2022/03/28 11:49:01;;;;;;;10.55;5.38;;;24.40;3.50;;;;;;5111646;27;34328;-75
2022/03/28 11:51:29;;;;;;;13.05;6.30;;;24.20;2.40;;;;;;5129520;27;34190;-75
2022/03/28 11:54:00;;;;;;;12.77;6.60;;;24.20;6.50;;;;;;5111571;27;36399;-75
2022/03/28 11:56:31;;;;;;;11.00;6.10;;;24.10;4.40;;;;;;5147879;27;34177;-75
2022/03/28 11:59:04;;;;;;;10.88;5.93;;;24.10;5.30;;;;;;5129069;27;34066;-76
2022/03/28 12:01:31;;;;;;;10.15;5.28;;;24.20;3.30;;;;;;5130243;27;34533;-75
2022/03/28 12:03:58;;;;;;;9.98;5.15;;;24.30;6.00;;;;;;5129260;27;35945;-76
2022/03/28 12:06:27;;;;;;;11.90;5.20;;;24.40;6.20;;;;;;5128277;27;34414;-75
2022/03/28 12:08:54;;;;;;;12.60;5.60;;;24.40;4.80;;;;;;5111718;27;34330;-76
2022/03/28 12:11:20;;;;;;;10.77;6.03;;;24.50;5.60;;;;;;5129535;27;34266;-76
2022/03/28 12:13:47;;;;;;;10.23;5.88;;;24.50;5.40;;;;;;5128265;27;36258;-76
2022/03/28 12:16:12;;;;;;;9.52;5.60;;;24.50;5.10;;;;;;5127573;27;34180;-76
2022/03/28 12:18:38;;;;;;;8.18;5.13;;;24.50;4.90;;;;;;5128471;27;34303;-75
2022/03/28 12:21:05;;;;;;;11.77;5.75;;;24.60;4.40;;;;;;5128577;27;34145;-76
2022/03/28 12:23:31;;;;;;;8.98;5.25;;;24.70;4.30;;;;;;5128817;27;35626;-75
2022/03/28 12:26:03;;;;;;;14.23;5.53;;;24.80;4.10;;;;;;5128655;27;34338;-76
2022/03/28 12:28:34;;;;;;;11.35;5.60;;;24.90;2.70;;;;;;5127812;27;34593;-75
2022/03/28 12:31:02;;;;;;;8.23;5.18;;;25.00;2.10;;;;;;5112645;27;34338;-76
2022/03/28 12:33:33;;;;;;;9.00;5.53;;;24.90;3.10;;;;;;5110582;27;36328;-75
2022/03/28 12:36:03;;;;;;;8.80;5.50;;;25.10;2.20;;;;;;5127745;27;35410;-75
2022/03/28 12:38:32;;;;;;;10.98;5.80;;;25.20;1.00;;;;;;5094391;27;34150;-75
2022/03/28 12:41:03;;;;;;;9.02;5.47;;;25.30;1.10;;;;;;5127485;27;34117;-75
2022/03/28 12:43:30;;;;;;;9.50;5.72;;;25.40;1.10;;;;;;5128201;27;35541;-76
2022/03/28 12:45:58;;;;;;;10.65;5.38;;;25.50;2.20;;;;;;5128196;27;34179;-75
2022/03/28 12:48:43;;;;;;;10.93;6.43;;;25.50;2.00;;;;;;5128470;27;34294;-75
2022/03/28 12:51:10;;;;;;;9.07;5.57;;;25.50;1.00;;;;;;5127426;27;34431;-75
2022/03/28 12:53:39;;;;;;;9.60;6.30;;;25.40;1.70;;;;;;5145992;27;34510;-75
2022/03/28 12:56:16;;;;;;;12.77;6.40;;;25.40;1.30;;;;;;5145963;27;34120;-75
2022/03/28 12:58:53;;;;;;;11.07;6.50;;;25.40;1.00;;;;;;5127824;27;34219;-75